Skip Navigation Links Skip Navigation Links

Current Weather

Capt Walter Francis Duke Rgnl At St Mary'S, Leonardtown, Md.

For information only: do not use for flight planning or navigation.
Latest weather
Observation time Sunday, August 1, 2021 5:35 AM EDT
Local time Sunday, August 1, 2021 6:29 AM EDT
Flight conditions Visual Meteorological Conditions
Winds
Wind direction South-Southwest (200°)
Wind speed 3 mph
Visibility 7 mi.
Sky condition
Ceiling 5,500 ft. broken clouds
Cloud layer scattered clouds 3,600 ft.
Cloud layer broken clouds 5,500 ft.
Cloud layer overcast 7,000 ft.
Temperature 70°F
Dewpoint 68°F
Altimeter 29.92 in.Hg
Precipitation
Precipitation last hour 0.04 in.
Derived measurements
Relative humidity 94%
Density altitude 1161 ft.
Remarks
Fully automated report.
Automated weather observing station without precipitation discriminator.
METAR K2W6 010935Z AUTO 20003KT 7SM SCT036 BKN055 OVC070 21/20 A2992 RMK AO1 P0004

Settings

Location code

InnerDrive.Weather 4.0.6770.0 Release CLR 4.0.30319.42000
Copyright ©2018 Inner Drive Technology. All rights reserved. Portions Copyright ©1986-2018 David Braverman.

Find weather

Site navigation


Skip Navigation Links

Place info

Page info

PayPal - The safer, easier way to pay online!

Return home.

Copyright ©2021 Inner Drive Technology. Purveyors of fine, hand-crafted computer software. Page printed 2021-08-01T10:29:58 UTC.